Time;durP1;ratioP1;P1;durP2;ratioP2;P2;SDS_P1;SDS_P2;PMS_P1;PMS_P2;Temp;Humidity;BMP_temperature;BMP_pressure;BME280_temperature;BME280_humidity;BME280_pressure;Samples;Min_cycle;Max_cycle;Signal;HPM_P1;HPM_P2
2024/01/19 00:01:51;;;;;;;0.80;0.80;;;-19.50;99.90;;;;;;5035207;28;20194;-77
2024/01/19 00:04:17;;;;;;;0.83;0.83;;;-19.60;99.90;;;;;;5034419;28;20226;-77
2024/01/19 00:07:03;;;;;;;1.20;1.20;;;-19.60;99.90;;;;;;5034562;28;20194;-77
2024/01/19 00:09:32;;;;;;;0.90;0.90;;;-19.60;99.90;;;;;;5016273;28;20673;-77
2024/01/19 00:12:06;;;;;;;0.93;0.93;;;-19.60;99.90;;;;;;5034581;28;20210;-76
2024/01/19 00:14:33;;;;;;;0.97;0.97;;;-19.50;99.90;;;;;;5034086;28;20289;-76
2024/01/19 00:16:59;;;;;;;1.93;1.83;;;-19.40;99.90;;;;;;5034701;28;20688;-77
2024/01/19 00:19:25;;;;;;;0.80;0.80;;;-19.40;99.90;;;;;;5034346;28;20206;-77
2024/01/19 00:21:55;;;;;;;0.90;0.90;;;-19.40;99.90;;;;;;5034671;28;20194;-77
2024/01/19 00:24:21;;;;;;;0.90;0.90;;;-19.50;99.90;;;;;;5032882;28;20210;-77
2024/01/19 00:26:54;;;;;;;0.80;0.80;;;-19.50;99.90;;;;;;5035077;28;20205;-77
2024/01/19 00:29:19;;;;;;;0.80;0.80;;;-19.50;99.90;;;;;;5054259;28;20225;-76
2024/01/19 00:31:46;;;;;;;0.80;0.80;;;-19.50;99.90;;;;;;5054009;28;20224;-77
2024/01/19 00:34:16;;;;;;;0.80;0.80;;;-19.40;99.90;;;;;;5036086;28;20205;-77
2024/01/19 00:36:42;;;;;;;1.00;1.00;;;-19.30;99.90;;;;;;5035784;28;20228;-77
2024/01/19 00:39:08;;;;;;;0.80;0.80;;;-19.30;99.90;;;;;;5053922;28;20302;-77
2024/01/19 00:41:34;;;;;;;0.90;0.90;;;-19.30;99.90;;;;;;5053732;28;20270;-77
2024/01/19 00:44:00;;;;;;;0.80;0.80;;;-19.20;99.90;;;;;;5051087;28;20721;-77
2024/01/19 00:46:25;;;;;;;0.93;0.93;;;-19.10;99.90;;;;;;5033877;28;20221;-77
2024/01/19 00:48:51;;;;;;;0.90;0.90;;;-19.10;99.90;;;;;;5016353;28;20279;-77
2024/01/19 00:51:17;;;;;;;0.90;0.90;;;-19.10;99.90;;;;;;5034157;28;20281;-77
2024/01/19 00:53:44;;;;;;;0.80;0.80;;;-19.10;99.90;;;;;;5034502;28;20206;-77
2024/01/19 00:56:10;;;;;;;0.90;0.90;;;-19.10;99.90;;;;;;5033801;28;20198;-78
2024/01/19 00:58:37;;;;;;;0.90;0.90;;;-19.20;99.90;;;;;;5015312;28;20209;-77
2024/01/19 01:01:04;;;;;;;0.90;0.90;;;-19.30;99.90;;;;;;5033699;28;20305;-77
2024/01/19 01:03:30;;;;;;;0.90;0.90;;;-19.30;99.90;;;;;;5033656;28;20273;-77
2024/01/19 01:05:57;;;;;;;0.80;0.80;;;-19.30;99.90;;;;;;5028964;28;20202;-77
2024/01/19 01:08:24;;;;;;;0.87;0.87;;;-19.50;99.90;;;;;;5040204;28;20234;-76
2024/01/19 01:10:50;;;;;;;0.90;0.90;;;-19.50;99.90;;;;;;5039866;28;20234;-76
2024/01/19 01:13:17;;;;;;;0.83;0.83;;;-19.50;99.90;;;;;;5056867;28;20209;-76
2024/01/19 01:15:43;;;;;;;0.90;0.90;;;-19.50;99.90;;;;;;5056892;28;20201;-76
2024/01/19 01:18:08;;;;;;;0.90;0.90;;;-19.50;99.90;;;;;;5039628;28;20183;-76
2024/01/19 01:20:34;;;;;;;0.90;0.90;;;-19.70;99.90;;;;;;5055385;28;20217;-77
2024/01/19 01:23:00;;;;;;;1.00;1.00;;;-19.80;99.90;;;;;;5054136;28;20224;-76
2024/01/19 01:25:25;;;;;;;0.80;0.80;;;-19.90;99.90;;;;;;5071923;28;20194;-76
2024/01/19 01:27:51;;;;;;;0.80;0.80;;;-20.00;99.90;;;;;;5072792;28;20198;-76
2024/01/19 01:30:16;;;;;;;0.90;0.90;;;-20.10;99.90;;;;;;5057600;28;20594;-76
2024/01/19 01:32:42;;;;;;;0.90;0.90;;;-20.10;99.90;;;;;;5055310;28;20213;-77
2024/01/19 01:35:08;;;;;;;0.90;0.90;;;-20.20;99.90;;;;;;5037111;28;20741;-76
2024/01/19 01:37:34;;;;;;;0.80;0.80;;;-20.30;99.90;;;;;;5054364;28;20205;-77
2024/01/19 01:39:59;;;;;;;0.90;0.90;;;-20.30;99.90;;;;;;5053175;28;20216;-77
2024/01/19 01:42:25;;;;;;;0.80;0.80;;;-20.30;99.90;;;;;;5033909;28;20285;-76
2024/01/19 01:44:50;;;;;;;0.90;0.90;;;-20.20;99.90;;;;;;5016330;28;20194;-77
2024/01/19 01:47:16;;;;;;;0.90;0.90;;;-20.10;99.90;;;;;;5033615;28;20194;-77
2024/01/19 01:49:42;;;;;;;0.80;0.80;;;-20.10;99.90;;;;;;5033136;28;20198;-77
2024/01/19 01:52:09;;;;;;;0.80;0.80;;;-20.10;99.90;;;;;;5033380;28;20301;-77
2024/01/19 01:54:35;;;;;;;0.97;0.97;;;-20.10;99.90;;;;;;5032996;28;20565;-77
2024/01/19 01:57:02;;;;;;;0.90;0.90;;;-20.10;99.90;;;;;;5031440;28;20186;-77
2024/01/19 01:59:29;;;;;;;0.90;0.90;;;-20.20;99.90;;;;;;5014352;28;20228;-77
2024/01/19 02:01:55;;;;;;;0.90;0.90;;;-20.30;99.90;;;;;;5032681;28;20186;-77
2024/01/19 02:04:21;;;;;;;0.80;0.80;;;-20.30;99.90;;;;;;5032649;28;20618;-77
2024/01/19 02:06:47;;;;;;;0.90;0.90;;;-20.30;99.90;;;;;;5032210;28;20198;-77
2024/01/19 02:09:13;;;;;;;0.80;0.80;;;-20.30;99.90;;;;;;5033484;28;20630;-77
2024/01/19 02:11:39;;;;;;;0.90;0.90;;;-20.30;99.90;;;;;;5032774;28;20590;-77
2024/01/19 02:14:06;;;;;;;0.80;0.80;;;-20.30;99.90;;;;;;5015002;28;20205;-78
2024/01/19 02:16:32;;;;;;;0.90;0.90;;;-20.30;99.90;;;;;;5032065;28;20194;-77
2024/01/19 02:18:58;;;;;;;0.70;0.70;;;-20.40;99.90;;;;;;5031479;28;20679;-77
2024/01/19 02:21:24;;;;;;;0.83;0.83;;;-20.40;99.90;;;;;;5032803;28;20194;-78
2024/01/19 02:24:04;;;;;;;0.80;0.80;;;-20.50;99.90;;;;;;5031961;28;20255;-78
2024/01/19 02:26:31;;;;;;;0.80;0.80;;;-20.50;99.90;;;;;;5031621;28;20190;-77
2024/01/19 02:28:57;;;;;;;0.70;0.70;;;-20.60;99.90;;;;;;5031509;28;20239;-77
2024/01/19 02:31:23;;;;;;;0.60;0.60;;;-20.60;99.90;;;;;;5030344;28;20276;-78
2024/01/19 02:33:49;;;;;;;0.80;0.80;;;-20.70;99.90;;;;;;5032414;28;20680;-78
2024/01/19 02:36:15;;;;;;;0.90;0.90;;;-20.60;99.90;;;;;;5032270;28;20190;-76
2024/01/19 02:38:40;;;;;;;0.90;0.90;;;-20.50;99.90;;;;;;5033591;28;20197;-77
2024/01/19 02:41:06;;;;;;;0.80;0.80;;;-20.50;99.90;;;;;;5033386;28;20202;-76
2024/01/19 02:43:32;;;;;;;0.70;0.70;;;-20.50;99.90;;;;;;5033266;28;20197;-77
2024/01/19 02:45:57;;;;;;;0.70;0.70;;;-20.60;99.90;;;;;;5033172;28;20277;-78
2024/01/19 02:48:23;;;;;;;0.80;0.80;;;-20.70;99.90;;;;;;5032811;28;20709;-78
2024/01/19 02:50:49;;;;;;;0.90;0.90;;;-20.80;99.90;;;;;;5015214;28;20198;-77
2024/01/19 02:53:14;;;;;;;0.83;0.83;;;-20.80;99.90;;;;;;5033888;28;20229;-78
2024/01/19 02:55:40;;;;;;;0.80;0.80;;;-20.80;99.90;;;;;;5033650;28;20194;-77
2024/01/19 02:58:06;;;;;;;1.00;1.00;;;-20.80;99.90;;;;;;5033217;28;20194;-77
2024/01/19 03:00:31;;;;;;;0.77;0.77;;;-20.80;99.90;;;;;;5015217;28;20253;-78
2024/01/19 03:02:57;;;;;;;0.90;0.90;;;-20.80;99.90;;;;;;5034177;28;20256;-78
2024/01/19 03:05:23;;;;;;;0.90;0.90;;;-20.80;99.90;;;;;;5034201;28;20218;-78
2024/01/19 03:07:48;;;;;;;0.90;0.90;;;-20.80;99.90;;;;;;5014547;28;20224;-79
2024/01/19 03:10:14;;;;;;;0.90;0.90;;;-20.80;99.90;;;;;;5015484;28;20232;-77
2024/01/19 03:12:40;;;;;;;0.90;0.90;;;-20.80;99.90;;;;;;5016102;28;20198;-77
2024/01/19 03:15:06;;;;;;;0.70;0.70;;;-20.80;99.90;;;;;;5033684;28;20586;-78
2024/01/19 03:17:33;;;;;;;0.80;0.80;;;-20.80;99.90;;;;;;5031449;28;20293;-77
2024/01/19 03:19:59;;;;;;;0.90;0.90;;;-20.90;99.90;;;;;;5016123;28;20224;-77
2024/01/19 03:22:25;;;;;;;0.80;0.80;;;-20.80;99.90;;;;;;5032704;28;20196;-77
2024/01/19 03:24:50;;;;;;;0.80;0.80;;;-20.80;99.90;;;;;;5032874;28;20670;-77
2024/01/19 03:27:16;;;;;;;0.80;0.80;;;-20.80;99.90;;;;;;5032727;28;20213;-76
2024/01/19 03:29:42;;;;;;;0.90;0.90;;;-20.80;99.90;;;;;;5032694;28;20191;-76
2024/01/19 03:32:07;;;;;;;0.73;0.73;;;-20.80;99.90;;;;;;5036341;28;20198;-77
2024/01/19 03:34:33;;;;;;;0.90;0.90;;;-20.90;99.90;;;;;;5035995;28;20202;-76
2024/01/19 03:37:03;;;;;;;0.80;0.80;;;-21.00;99.90;;;;;;5035986;28;20240;-76
2024/01/19 03:39:30;;;;;;;0.80;0.80;;;-21.00;99.90;;;;;;5035692;28;20201;-76
2024/01/19 03:41:55;;;;;;;0.80;0.80;;;-21.10;99.90;;;;;;5035295;28;20664;-76
2024/01/19 03:44:23;;;;;;;0.80;0.80;;;-21.10;99.90;;;;;;5035182;28;20229;-76
2024/01/19 03:46:49;;;;;;;1.00;1.00;;;-21.10;99.90;;;;;;5035246;28;20201;-76
2024/01/19 03:49:15;;;;;;;0.90;0.90;;;-21.20;99.90;;;;;;5035096;28;20190;-76
2024/01/19 03:52:02;;;;;;;0.80;0.80;;;-21.10;99.90;;;;;;5034844;28;20337;-75
2024/01/19 03:54:28;;;;;;;0.90;0.90;;;-21.10;99.90;;;;;;5034672;28;20190;-76
2024/01/19 03:56:56;;;;;;;0.90;0.90;;;-21.10;99.90;;;;;;5035087;28;20206;-76
2024/01/19 03:59:21;;;;;;;0.80;0.80;;;-21.20;99.90;;;;;;5034690;28;20275;-75
2024/01/19 04:01:47;;;;;;;0.90;0.90;;;-21.20;99.90;;;;;;5026179;28;20295;-76
2024/01/19 04:04:13;;;;;;;0.80;0.80;;;-21.20;99.90;;;;;;5020226;28;20202;-76
2024/01/19 04:06:39;;;;;;;0.80;0.80;;;-21.20;99.90;;;;;;5015208;28;20562;-76
2024/01/19 04:09:05;;;;;;;0.80;0.80;;;-21.10;99.90;;;;;;5015408;28;20266;-76
2024/01/19 04:11:33;;;;;;;0.90;0.90;;;-21.00;99.90;;;;;;5013518;28;20223;-75
2024/01/19 04:13:59;;;;;;;0.80;0.80;;;-21.00;99.90;;;;;;5036993;28;20192;-75
2024/01/19 04:16:24;;;;;;;0.80;0.80;;;-21.10;99.90;;;;;;5054563;28;20185;-75
2024/01/19 04:18:50;;;;;;;0.80;0.80;;;-21.20;99.90;;;;;;5054735;28;20193;-76
2024/01/19 04:21:16;;;;;;;0.90;0.90;;;-21.20;99.90;;;;;;5054484;28;20574;-75
2024/01/19 04:23:44;;;;;;;0.80;0.80;;;-21.20;99.90;;;;;;5054620;28;20723;-76
2024/01/19 04:26:10;;;;;;;0.80;0.80;;;-21.10;99.90;;;;;;5054511;28;20239;-76
2024/01/19 04:28:36;;;;;;;0.87;0.87;;;-21.10;99.90;;;;;;5054109;28;20190;-76
2024/01/19 04:31:02;;;;;;;0.80;0.80;;;-21.10;99.90;;;;;;5014747;28;20206;-75
2024/01/19 04:33:27;;;;;;;0.80;0.80;;;-21.10;99.90;;;;;;5014579;28;20195;-76
2024/01/19 04:35:53;;;;;;;0.80;0.80;;;-21.20;99.90;;;;;;5014953;28;20248;-75
2024/01/19 04:38:19;;;;;;;0.80;0.80;;;-21.30;99.90;;;;;;5014448;28;20207;-74
2024/01/19 04:40:44;;;;;;;0.80;0.80;;;-21.30;99.90;;;;;;5014962;28;20554;-74
2024/01/19 04:43:10;;;;;;;0.80;0.80;;;-21.40;99.90;;;;;;5015814;28;20198;-73
2024/01/19 04:45:36;;;;;;;0.80;0.80;;;-21.40;99.90;;;;;;5015796;28;20191;-74
2024/01/19 04:48:02;;;;;;;0.80;0.80;;;-21.30;99.90;;;;;;5016344;28;20193;-75
2024/01/19 04:50:28;;;;;;;0.80;0.80;;;-21.30;99.90;;;;;;4998710;28;20202;-74
2024/01/19 04:52:53;;;;;;;0.90;0.90;;;-21.30;99.90;;;;;;5016689;28;20222;-74
2024/01/19 04:55:19;;;;;;;0.80;0.80;;;-21.40;99.90;;;;;;5015189;28;20581;-74
2024/01/19 04:57:45;;;;;;;0.90;0.90;;;-21.40;99.90;;;;;;5017481;28;20191;-74
2024/01/19 05:00:12;;;;;;;0.67;0.67;;;-21.50;99.90;;;;;;5015740;28;20199;-74
2024/01/19 05:02:38;;;;;;;0.80;0.80;;;-21.50;99.90;;;;;;5014111;28;20211;-74
2024/01/19 05:05:04;;;;;;;0.90;0.90;;;-21.50;99.90;;;;;;5016014;28;20650;-74
2024/01/19 05:07:29;;;;;;;0.90;0.90;;;-21.60;99.90;;;;;;4997648;28;20195;-74
2024/01/19 05:09:55;;;;;;;0.80;0.80;;;-21.60;99.90;;;;;;5032876;28;20659;-74
2024/01/19 05:12:21;;;;;;;0.80;0.80;;;-21.70;99.90;;;;;;5034847;28;20936;-73
2024/01/19 05:14:47;;;;;;;0.90;0.90;;;-21.60;99.90;;;;;;5035722;28;20248;-74
2024/01/19 05:17:13;;;;;;;0.90;0.90;;;-21.60;99.90;;;;;;5035250;28;20194;-73
2024/01/19 05:19:38;;;;;;;0.80;0.80;;;-21.70;99.90;;;;;;5034822;28;20214;-74
2024/01/19 05:22:04;;;;;;;0.90;0.90;;;-21.90;99.90;;;;;;5035757;28;20190;-74
2024/01/19 05:24:30;;;;;;;0.90;0.90;;;-22.10;99.90;;;;;;5035768;28;20197;-73
2024/01/19 05:26:56;;;;;;;0.70;0.70;;;-22.20;99.90;;;;;;5021164;28;20285;-73
2024/01/19 05:29:22;;;;;;;0.90;0.90;;;-22.30;99.90;;;;;;5035589;28;20209;-74
2024/01/19 05:31:48;;;;;;;0.90;0.90;;;-22.20;99.90;;;;;;5036413;28;20221;-74
2024/01/19 05:34:14;;;;;;;0.90;0.90;;;-22.30;99.90;;;;;;5035693;28;20194;-74
2024/01/19 05:36:41;;;;;;;0.90;0.90;;;-22.30;99.90;;;;;;5035912;28;20665;-74
2024/01/19 05:39:07;;;;;;;0.73;0.73;;;-22.30;99.90;;;;;;5018197;28;20224;-74
2024/01/19 05:41:33;;;;;;;0.90;0.90;;;-22.40;99.90;;;;;;5036378;28;20183;-74
2024/01/19 05:43:59;;;;;;;0.90;0.90;;;-22.30;99.90;;;;;;5019461;28;20199;-74
2024/01/19 05:46:25;;;;;;;0.90;0.90;;;-22.40;99.90;;;;;;5033511;28;20190;-71
2024/01/19 05:48:51;;;;;;;0.80;0.80;;;-22.50;99.90;;;;;;5032807;28;20974;-72
2024/01/19 05:51:17;;;;;;;0.80;0.80;;;-22.40;99.90;;;;;;5032897;28;20809;-72
2024/01/19 05:53:43;;;;;;;0.80;0.80;;;-22.50;99.90;;;;;;5032221;28;20202;-74
2024/01/19 05:56:09;;;;;;;0.90;0.90;;;-22.50;99.90;;;;;;5032734;28;20190;-71
2024/01/19 05:58:35;;;;;;;0.80;0.80;;;-22.40;99.90;;;;;;5032376;28;20736;-72
2024/01/19 06:01:02;;;;;;;0.70;0.70;;;-22.30;99.90;;;;;;5014543;28;20213;-71
2024/01/19 06:03:29;;;;;;;0.80;0.80;;;-22.30;99.90;;;;;;5014552;28;20820;-71
2024/01/19 06:05:56;;;;;;;0.80;0.80;;;-22.20;99.90;;;;;;5043316;28;20591;-72
2024/01/19 06:08:22;;;;;;;0.80;0.80;;;-22.20;99.90;;;;;;5030697;28;20293;-72
2024/01/19 06:10:47;;;;;;;0.80;0.80;;;-22.10;99.90;;;;;;5030616;28;20701;-70
2024/01/19 06:13:13;;;;;;;0.80;0.80;;;-22.10;99.90;;;;;;5032136;28;20229;-71
2024/01/19 06:15:39;;;;;;;0.90;0.90;;;-22.10;99.90;;;;;;5030704;28;20566;-72
2024/01/19 06:18:05;;;;;;;0.90;0.90;;;-22.10;99.90;;;;;;5034891;28;20269;-72
2024/01/19 06:20:30;;;;;;;0.80;0.80;;;-22.10;99.90;;;;;;5045288;28;20618;-72
2024/01/19 06:22:56;;;;;;;0.80;0.80;;;-22.10;99.90;;;;;;5048397;28;20205;-72
2024/01/19 06:25:22;;;;;;;0.80;0.80;;;-22.00;99.90;;;;;;5049634;28;20217;-72
2024/01/19 06:27:47;;;;;;;0.80;0.80;;;-22.10;99.90;;;;;;5051470;28;20289;-75
2024/01/19 06:30:13;;;;;;;0.90;0.90;;;-22.10;99.90;;;;;;5052071;28;20181;-73
2024/01/19 06:32:39;;;;;;;1.38;1.30;;;-22.20;99.90;;;;;;5048667;28;20407;-72
2024/01/19 06:35:05;;;;;;;0.90;0.90;;;-22.10;99.90;;;;;;5048791;28;20189;-74
2024/01/19 06:37:31;;;;;;;0.70;0.70;;;-22.10;99.90;;;;;;5049870;28;20202;-72
2024/01/19 06:39:57;;;;;;;0.70;0.70;;;-22.20;99.90;;;;;;5048802;28;20603;-72
2024/01/19 06:42:23;;;;;;;0.80;0.80;;;-22.20;99.90;;;;;;5051980;28;20253;-73
2024/01/19 06:44:48;;;;;;;0.87;0.87;;;-22.30;99.90;;;;;;5054323;28;20201;-72
2024/01/19 06:47:16;;;;;;;0.80;0.80;;;-22.30;99.90;;;;;;5050286;28;20221;-72
2024/01/19 06:49:42;;;;;;;0.90;0.90;;;-22.40;99.90;;;;;;5050826;28;20190;-73
2024/01/19 06:52:08;;;;;;;0.80;0.80;;;-22.40;99.90;;;;;;5050508;28;20662;-72
2024/01/19 06:54:33;;;;;;;0.80;0.80;;;-22.40;99.90;;;;;;5022376;28;20198;-73
2024/01/19 06:56:59;;;;;;;0.90;0.90;;;-22.40;99.90;;;;;;5013668;28;20210;-75
2024/01/19 06:59:27;;;;;;;0.90;0.90;;;-22.20;99.90;;;;;;5013376;28;20586;-75
2024/01/19 07:01:53;;;;;;;0.90;0.90;;;-22.10;99.90;;;;;;5031277;28;20247;-74
2024/01/19 07:04:19;;;;;;;0.80;0.80;;;-21.90;99.90;;;;;;5032605;28;20186;-77
2024/01/19 07:06:44;;;;;;;0.80;0.80;;;-21.90;99.90;;;;;;5035659;28;20190;-75
2024/01/19 07:09:10;;;;;;;0.90;0.90;;;-21.80;99.90;;;;;;5017697;28;20233;-77
2024/01/19 07:11:36;;;;;;;0.90;0.90;;;-21.90;99.90;;;;;;5035055;28;20245;-75
2024/01/19 07:14:02;;;;;;;0.90;0.90;;;-22.10;99.90;;;;;;5035512;28;20189;-75
2024/01/19 07:16:28;;;;;;;0.80;0.80;;;-22.10;99.90;;;;;;5035193;28;20197;-76
2024/01/19 07:18:53;;;;;;;0.80;0.80;;;-22.30;99.90;;;;;;5035292;28;20194;-75
2024/01/19 07:21:19;;;;;;;0.80;0.80;;;-22.40;99.90;;;;;;5017566;28;20677;-76
2024/01/19 07:23:45;;;;;;;0.90;0.90;;;-22.50;99.90;;;;;;5035110;28;20739;-75
2024/01/19 07:26:10;;;;;;;0.80;0.80;;;-22.60;99.90;;;;;;5017476;28;20555;-76
2024/01/19 07:28:36;;;;;;;0.80;0.80;;;-22.60;99.90;;;;;;5017687;28;20221;-76
2024/01/19 07:31:02;;;;;;;0.80;0.80;;;-22.70;99.90;;;;;;5035104;28;20194;-76
2024/01/19 07:33:28;;;;;;;0.80;0.80;;;-22.70;99.90;;;;;;5017206;28;20238;-76
2024/01/19 07:35:54;;;;;;;0.80;0.80;;;-22.80;99.90;;;;;;5034974;28;20198;-75
2024/01/19 07:38:20;;;;;;;0.90;0.90;;;-22.80;99.90;;;;;;5017123;28;20261;-76
2024/01/19 07:40:45;;;;;;;0.80;0.80;;;-22.80;99.90;;;;;;5034884;28;20238;-76
2024/01/19 07:43:11;;;;;;;0.80;0.80;;;-22.80;99.90;;;;;;5034863;28;20193;-77
2024/01/19 07:45:37;;;;;;;0.80;0.80;;;-22.70;99.90;;;;;;5034795;28;20195;-76
2024/01/19 07:48:03;;;;;;;0.73;0.73;;;-22.70;99.90;;;;;;5034553;28;20182;-76
2024/01/19 07:50:28;;;;;;;0.70;0.70;;;-22.70;99.90;;;;;;5034653;28;20240;-76
2024/01/19 07:52:54;;;;;;;0.80;0.80;;;-22.60;99.90;;;;;;5017346;28;20202;-76
2024/01/19 07:55:20;;;;;;;0.80;0.80;;;-22.60;99.90;;;;;;5017217;28;20669;-76
2024/01/19 07:57:46;;;;;;;0.70;0.70;;;-22.60;99.90;;;;;;5016670;28;20339;-76
2024/01/19 08:00:12;;;;;;;0.80;0.80;;;-22.50;99.90;;;;;;5034562;28;20551;-77
2024/01/19 08:02:40;;;;;;;0.77;0.77;;;-22.30;99.90;;;;;;5034294;28;20198;-76
2024/01/19 08:05:06;;;;;;;0.87;0.87;;;-22.20;99.90;;;;;;5034510;28;20557;-71
2024/01/19 08:07:31;;;;;;;0.87;0.87;;;-22.40;99.90;;;;;;5016500;28;20201;-72
2024/01/19 08:09:58;;;;;;;0.60;0.60;;;-22.40;99.90;;;;;;5016653;28;20317;-72
2024/01/19 08:12:23;;;;;;;0.80;0.80;;;-22.50;99.90;;;;;;5016757;28;20198;-72
2024/01/19 08:14:50;;;;;;;0.77;0.77;;;-22.50;99.90;;;;;;5034446;28;20709;-73
2024/01/19 08:17:16;;;;;;;0.70;0.70;;;-22.60;99.90;;;;;;5015836;28;20202;-72
2024/01/19 08:19:42;;;;;;;0.80;0.80;;;-22.50;99.90;;;;;;5032588;28;20700;-72
2024/01/19 08:22:08;;;;;;;0.90;0.90;;;-22.40;99.90;;;;;;5034288;28;20588;-72
2024/01/19 08:24:37;;;;;;;0.90;0.90;;;-22.20;99.90;;;;;;5034220;28;20277;-72
2024/01/19 08:27:03;;;;;;;0.80;0.80;;;-22.10;99.90;;;;;;5034521;28;20183;-71
2024/01/19 08:29:29;;;;;;;0.80;0.80;;;-22.10;99.90;;;;;;5016232;28;20225;-72
2024/01/19 08:31:55;;;;;;;0.70;0.70;;;-22.10;99.90;;;;;;5034039;28;20650;-72
2024/01/19 08:34:21;;;;;;;0.90;0.90;;;-21.90;99.90;;;;;;5034074;28;20689;-73
2024/01/19 08:36:46;;;;;;;0.90;0.90;;;-21.80;99.90;;;;;;5016526;28;20202;-74
2024/01/19 08:39:12;;;;;;;0.80;0.80;;;-21.60;99.90;;;;;;5034110;28;20194;-72
2024/01/19 08:41:44;;;;;;;0.90;0.90;;;-21.50;99.90;;;;;;5034111;28;20186;-72
2024/01/19 08:44:10;;;;;;;0.70;0.70;;;-21.30;99.90;;;;;;5034089;28;20194;-72
2024/01/19 08:46:47;;;;;;;0.80;0.80;;;-21.20;99.90;;;;;;5033700;28;20236;-72
2024/01/19 08:49:13;;;;;;;0.90;0.90;;;-21.10;99.90;;;;;;5015914;28;20200;-71
2024/01/19 08:51:39;;;;;;;0.90;0.90;;;-21.10;99.90;;;;;;5033564;28;20272;-72
2024/01/19 08:54:05;;;;;;;0.90;0.90;;;-21.10;99.90;;;;;;5033453;28;20201;-72
2024/01/19 08:56:31;;;;;;;0.90;0.90;;;-21.10;99.90;;;;;;5033502;28;20558;-74
2024/01/19 08:58:57;;;;;;;0.80;0.80;;;-21.10;99.90;;;;;;5033311;28;20190;-72
2024/01/19 09:01:23;;;;;;;0.80;0.80;;;-21.10;99.90;;;;;;5033100;28;20210;-73
2024/01/19 09:03:49;;;;;;;0.80;0.80;;;-21.00;99.90;;;;;;5033529;28;20213;-73
2024/01/19 09:06:15;;;;;;;0.80;0.80;;;-21.00;99.90;;;;;;5033363;28;20201;-71
2024/01/19 09:08:42;;;;;;;0.80;0.80;;;-20.90;99.90;;;;;;5033249;28;20190;-72
2024/01/19 09:11:08;;;;;;;0.90;0.90;;;-20.80;99.90;;;;;;5033030;28;20312;-72
2024/01/19 09:13:34;;;;;;;0.90;0.90;;;-20.80;99.90;;;;;;5015452;28;20212;-72
2024/01/19 09:15:59;;;;;;;0.90;0.90;;;-20.80;99.90;;;;;;5033271;28;20186;-77
2024/01/19 09:18:25;;;;;;;0.80;0.80;;;-20.80;99.90;;;;;;5032783;28;20186;-75
2024/01/19 09:20:51;;;;;;;0.90;0.90;;;-20.80;99.90;;;;;;5032796;28;20213;-76
2024/01/19 09:23:16;;;;;;;0.80;0.80;;;-20.80;99.90;;;;;;5032785;28;20198;-75
2024/01/19 09:25:42;;;;;;;0.87;0.87;;;-20.80;99.90;;;;;;5032666;28;20197;-77
2024/01/19 09:28:08;;;;;;;0.90;0.90;;;-20.70;99.90;;;;;;5032784;28;20673;-76
2024/01/19 09:30:34;;;;;;;0.90;0.90;;;-20.80;99.90;;;;;;5032712;28;20544;-75
2024/01/19 09:32:59;;;;;;;0.90;0.90;;;-20.80;99.90;;;;;;5032569;28;20202;-76
2024/01/19 09:35:25;;;;;;;0.90;0.90;;;-20.70;99.90;;;;;;5032456;28;20665;-76
2024/01/19 09:37:51;;;;;;;0.90;0.90;;;-20.70;99.90;;;;;;5032581;28;20276;-76
2024/01/19 09:40:19;;;;;;;4.30;3.63;;;-20.50;99.90;;;;;;5032293;28;20249;-75
2024/01/19 09:42:49;;;;;;;0.90;0.90;;;-20.50;99.90;;;;;;5014787;28;20225;-76
2024/01/19 09:45:17;;;;;;;0.80;0.80;;;-20.50;99.90;;;;;;5032504;28;20187;-76
2024/01/19 09:47:55;;;;;;;0.87;0.87;;;-20.60;99.90;;;;;;5032354;28;20189;-76
2024/01/19 09:50:26;;;;;;;0.90;0.90;;;-20.60;99.90;;;;;;5032121;28;20198;-75
2024/01/19 09:52:58;;;;;;;0.83;0.83;;;-20.50;99.90;;;;;;5032587;28;20653;-76
2024/01/19 09:55:26;;;;;;;0.90;0.90;;;-20.40;99.90;;;;;;5032134;28;20212;-76
2024/01/19 09:57:52;;;;;;;1.00;1.00;;;-20.20;99.90;;;;;;5032358;28;20566;-76
2024/01/19 10:00:20;;;;;;;0.93;0.93;;;-20.20;99.90;;;;;;5032159;28;20206;-76
2024/01/19 10:02:47;;;;;;;0.80;0.80;;;-20.10;99.90;;;;;;5014463;28;20615;-76
2024/01/19 10:05:15;;;;;;;0.90;0.90;;;-20.10;99.90;;;;;;5014475;28;20190;-75
2024/01/19 10:07:45;;;;;;;2.60;2.40;;;-20.00;99.90;;;;;;5031900;28;20592;-75
2024/01/19 10:10:15;;;;;;;0.83;0.83;;;-19.90;99.90;;;;;;5031861;28;20918;-76
2024/01/19 10:12:42;;;;;;;0.90;0.90;;;-19.80;99.90;;;;;;5015363;28;21128;-76
2024/01/19 10:15:17;;;;;;;0.90;0.90;;;-19.80;99.90;;;;;;5032049;28;20197;-76
2024/01/19 10:17:45;;;;;;;0.90;0.90;;;-19.80;99.90;;;;;;5031883;28;20649;-76
2024/01/19 10:20:12;;;;;;;0.90;0.90;;;-19.70;99.90;;;;;;5014040;28;20221;-76
2024/01/19 10:22:39;;;;;;;1.00;1.00;;;-19.60;99.90;;;;;;5031635;28;20284;-76
2024/01/19 10:25:10;;;;;;;0.90;0.90;;;-19.50;99.90;;;;;;5031904;28;20190;-75
2024/01/19 10:27:41;;;;;;;0.90;0.90;;;-19.70;99.90;;;;;;5032091;28;20231;-76
2024/01/19 10:30:27;;;;;;;0.90;0.90;;;-19.70;99.90;;;;;;5032137;28;20889;-76
2024/01/19 10:33:02;;;;;;;0.90;0.90;;;-19.60;99.90;;;;;;5032001;28;20190;-76
2024/01/19 10:35:28;;;;;;;0.87;0.87;;;-19.60;99.90;;;;;;5031797;28;20319;-75
2024/01/19 10:38:03;;;;;;;0.90;0.90;;;-19.50;99.90;;;;;;5032086;28;20332;-76
2024/01/19 10:40:31;;;;;;;0.90;0.90;;;-19.50;99.90;;;;;;5031723;28;20209;-75
2024/01/19 10:42:57;;;;;;;0.83;0.83;;;-19.50;99.90;;;;;;5032224;28;20190;-75
2024/01/19 10:45:23;;;;;;;0.83;0.83;;;-19.40;99.90;;;;;;5031109;28;20317;-76
2024/01/19 10:47:51;;;;;;;0.90;0.90;;;-19.30;99.90;;;;;;5052386;28;20194;-74
2024/01/19 10:50:18;;;;;;;0.90;0.90;;;-19.30;99.90;;;;;;5065527;28;20201;-75
2024/01/19 10:52:47;;;;;;;0.90;0.90;;;-19.20;99.90;;;;;;5056283;28;20197;-76
2024/01/19 10:55:29;;;;;;;0.90;0.90;;;-19.10;99.90;;;;;;5051651;28;20197;-76
2024/01/19 10:58:16;;;;;;;0.90;0.90;;;-19.00;99.90;;;;;;5051589;28;20695;-76
2024/01/19 11:00:42;;;;;;;0.90;0.90;;;-19.00;99.90;;;;;;5050406;28;20231;-77
2024/01/19 11:03:08;;;;;;;0.80;0.80;;;-19.00;99.90;;;;;;5045123;28;20198;-76
2024/01/19 11:05:36;;;;;;;0.80;0.80;;;-18.90;99.90;;;;;;5031982;28;20650;-76
2024/01/19 11:08:03;;;;;;;1.00;1.00;;;-18.80;99.90;;;;;;5030430;28;20214;-76
2024/01/19 11:10:31;;;;;;;0.90;0.90;;;-18.70;99.90;;;;;;5013499;28;20312;-75
2024/01/19 11:12:59;;;;;;;0.90;0.90;;;-18.50;99.90;;;;;;5031610;28;20557;-75
2024/01/19 11:15:48;;;;;;;0.90;0.90;;;-18.40;99.90;;;;;;5013148;28;20195;-76
2024/01/19 11:18:15;;;;;;;0.90;0.90;;;-18.20;99.90;;;;;;5013541;28;20204;-76
2024/01/19 11:20:41;;;;;;;0.80;0.80;;;-18.10;99.90;;;;;;5013063;28;20296;-76
2024/01/19 11:23:07;;;;;;;0.90;0.90;;;-18.00;99.90;;;;;;5031296;28;20269;-75
2024/01/19 11:26:09;;;;;;;0.80;0.80;;;-18.10;99.90;;;;;;5013758;28;20277;-75
2024/01/19 11:28:57;;;;;;;1.00;1.00;;;-18.20;99.90;;;;;;5037371;28;20190;-75
2024/01/19 11:31:27;;;;;;;0.90;0.90;;;-18.20;99.90;;;;;;5031254;28;20623;-76
2024/01/19 11:33:53;;;;;;;0.90;0.90;;;-18.10;99.90;;;;;;5031428;28;20233;-76
2024/01/19 11:36:48;;;;;;;0.83;0.83;;;-18.00;99.90;;;;;;5031541;28;20534;-74
2024/01/19 11:39:37;;;;;;;0.80;0.80;;;-17.80;99.90;;;;;;5018972;28;20206;-76
2024/01/19 11:42:03;;;;;;;0.90;0.90;;;-17.40;99.90;;;;;;5031657;28;20636;-76
2024/01/19 11:44:47;;;;;;;0.90;0.90;;;-17.20;99.90;;;;;;5031438;28;20597;-77
2024/01/19 11:47:35;;;;;;;0.90;0.90;;;-17.20;99.90;;;;;;5031352;28;20186;-77
2024/01/19 11:50:05;;;;;;;0.97;0.97;;;-17.30;99.90;;;;;;5031490;28;20202;-76
2024/01/19 11:52:35;;;;;;;1.00;1.00;;;-17.40;99.90;;;;;;5016914;28;20214;-76
2024/01/19 11:55:26;;;;;;;0.90;0.90;;;-17.50;99.90;;;;;;5040455;28;20200;-76
2024/01/19 11:57:52;;;;;;;0.97;0.97;;;-17.60;99.90;;;;;;5049597;28;20206;-76
2024/01/19 12:00:21;;;;;;;0.90;0.90;;;-17.80;99.90;;;;;;5048695;28;20274;-76
2024/01/19 12:02:47;;;;;;;1.00;1.00;;;-17.80;99.90;;;;;;5050469;28;20202;-76
2024/01/19 12:05:18;;;;;;;1.00;1.00;;;-17.80;99.90;;;;;;5053616;28;20198;-76
2024/01/19 12:07:44;;;;;;;0.90;0.90;;;-17.90;99.90;;;;;;5035703;28;20206;-76
2024/01/19 12:10:19;;;;;;;0.90;0.90;;;-17.80;99.90;;;;;;5053312;28;20237;-77
2024/01/19 12:12:46;;;;;;;1.00;1.00;;;-17.80;99.90;;;;;;5054985;28;20186;-76
2024/01/19 12:15:15;;;;;;;1.00;1.00;;;-17.80;99.90;;;;;;5054622;28;20191;-77
2024/01/19 12:17:43;;;;;;;0.90;0.90;;;-17.80;99.90;;;;;;5053261;28;20206;-77
2024/01/19 12:20:15;;;;;;;0.90;0.90;;;-17.80;99.90;;;;;;5025807;28;20781;-78
2024/01/19 12:22:42;;;;;;;0.90;0.90;;;-17.80;99.90;;;;;;5019260;28;20593;-77
2024/01/19 12:25:23;;;;;;;0.90;0.90;;;-17.80;99.90;;;;;;5036083;28;20198;-77
2024/01/19 12:27:50;;;;;;;0.90;0.90;;;-17.80;99.90;;;;;;5034950;28;20183;-76
2024/01/19 12:30:17;;;;;;;0.90;0.90;;;-17.90;99.90;;;;;;5016774;28;20301;-77
2024/01/19 12:32:44;;;;;;;1.00;1.00;;;-18.00;99.90;;;;;;5019663;28;20211;-77
2024/01/19 12:35:11;;;;;;;0.80;0.80;;;-18.10;99.90;;;;;;5044236;28;20194;-77
2024/01/19 12:37:37;;;;;;;0.90;0.90;;;-18.10;99.90;;;;;;5035183;28;20315;-77